Time;durP1;ratioP1;P1;durP2;ratioP2;P2;SDS_P1;SDS_P2;PMS_P1;PMS_P2;Temp;Humidity;BMP_temperature;BMP_pressure;BME280_temperature;BME280_humidity;BME280_pressure;Samples;Min_cycle;Max_cycle;Signal;HPM_P1;HPM_P2
2022/02/04 00:04:35;;;;;;;12.90;11.35;;;4.60;99.90;;;;;;5049840;28;20268;-82
2022/02/04 00:07:21;;;;;;;21.00;11.75;;;4.60;99.90;;;;;;5048492;28;20262;-82
2022/02/04 00:20:50;;;;;;;13.88;10.90;;;4.70;99.90;;;;;;5033257;28;20203;-82
2022/02/04 00:23:19;;;;;;;12.50;10.93;;;4.70;99.90;;;;;;5067973;28;20207;-82
2022/02/04 00:25:56;;;;;;;13.45;11.40;;;4.80;99.90;;;;;;5067820;28;20196;-82
2022/02/04 00:28:38;;;;;;;12.52;11.05;;;4.80;99.90;;;;;;5067999;28;20559;-82
2022/02/04 00:31:17;;;;;;;11.90;9.93;;;4.80;99.90;;;;;;5067802;28;20244;-82
2022/02/04 00:33:59;;;;;;;11.55;10.20;;;4.80;99.90;;;;;;5067487;28;20217;-82
2022/02/04 00:36:32;;;;;;;13.75;10.75;;;4.90;99.90;;;;;;5067397;28;20680;-82
2022/02/04 00:39:06;;;;;;;14.23;9.95;;;4.90;99.90;;;;;;5067700;28;20207;-82
2022/02/04 00:41:37;;;;;;;13.38;9.80;;;4.90;99.90;;;;;;5067585;28;20209;-82
2022/02/04 00:44:05;;;;;;;13.23;11.20;;;5.00;99.90;;;;;;5067229;28;20715;-82
2022/02/04 00:46:43;;;;;;;14.52;11.60;;;5.00;99.90;;;;;;5067463;28;20665;-81
2022/02/04 00:49:17;;;;;;;11.80;10.55;;;5.00;99.90;;;;;;5067572;28;20241;-82
2022/02/04 00:51:55;;;;;;;12.82;10.43;;;5.00;99.90;;;;;;5067400;28;20282;-82
2022/02/04 00:54:40;;;;;;;12.10;10.40;;;5.10;99.90;;;;;;5058279;28;20297;-82
2022/02/04 00:57:15;;;;;;;15.77;11.82;;;5.10;99.90;;;;;;5056221;28;20195;-82
2022/02/04 01:25:54;;;;;;;14.15;11.27;;;5.30;99.90;;;;;;5069066;28;20202;-82
2022/02/04 01:27:45;;;;;;;13.60;11.27;;;5.30;99.90;;;;;;5071394;28;20302;-82
2022/02/04 01:30:18;;;;;;;14.50;10.65;;;5.30;99.90;;;;;;5069984;28;20247;-82
2022/02/04 01:32:45;;;;;;;13.25;9.52;;;5.40;99.90;;;;;;5055617;28;20600;-82
2022/02/04 01:35:12;;;;;;;11.52;10.30;;;5.40;99.90;;;;;;5070672;28;20314;-82
2022/02/04 01:37:41;;;;;;;11.63;9.90;;;5.40;99.90;;;;;;5069630;28;20207;-82
2022/02/04 01:40:09;;;;;;;14.73;11.45;;;5.40;99.90;;;;;;5058006;28;20670;-82
2022/02/04 01:42:36;;;;;;;14.68;11.00;;;5.40;99.90;;;;;;5070745;28;20199;-82
2022/02/04 01:45:03;;;;;;;14.23;11.30;;;5.40;99.90;;;;;;5070128;28;20752;-82
2022/02/04 01:47:33;;;;;;;13.50;10.90;;;5.40;99.90;;;;;;5070656;28;20291;-82
2022/02/04 01:50:00;;;;;;;13.07;10.48;;;5.40;99.90;;;;;;5070919;28;20197;-82
2022/02/04 01:52:27;;;;;;;13.20;10.27;;;5.40;99.90;;;;;;5071131;28;20200;-81
2022/02/04 01:54:59;;;;;;;11.73;10.30;;;5.50;99.90;;;;;;5060942;28;20227;-82
2022/02/04 01:57:33;;;;;;;13.63;11.43;;;5.40;99.90;;;;;;5070660;28;20261;-82
2022/02/04 02:00:00;;;;;;;11.85;10.15;;;5.40;99.90;;;;;;5070280;28;20297;-82
2022/02/04 02:02:27;;;;;;;12.40;10.07;;;5.50;99.90;;;;;;5069978;28;20195;-82
2022/02/04 02:04:54;;;;;;;11.55;9.70;;;5.50;99.90;;;;;;5064169;28;20648;-81
2022/02/04 02:07:22;;;;;;;13.90;10.85;;;5.50;99.90;;;;;;5070656;28;20197;-82
2022/02/04 02:09:56;;;;;;;12.38;9.27;;;5.50;99.90;;;;;;5070369;28;20935;-82
2022/02/04 02:12:31;;;;;;;13.70;9.98;;;5.50;99.90;;;;;;5070913;28;20239;-82
2022/02/04 02:15:14;;;;;;;11.35;8.93;;;5.50;99.90;;;;;;5054375;28;20219;-82
2022/02/04 02:46:08;;;;;;;9.57;7.93;;;5.50;99.90;;;;;;5061093;28;20218;-82
2022/02/04 02:48:57;;;;;;;8.75;7.85;;;5.40;99.90;;;;;;5069146;28;20208;-82
2022/02/04 02:54:34;;;;;;;7.88;7.15;;;5.50;99.90;;;;;;5067085;28;20732;-82
2022/02/04 02:57:22;;;;;;;8.15;7.28;;;5.50;99.90;;;;;;5065216;28;20191;-82
2022/02/04 02:59:55;;;;;;;8.63;6.88;;;5.50;99.90;;;;;;5069292;28;20657;-82
2022/02/04 03:02:22;;;;;;;7.40;6.63;;;5.60;99.90;;;;;;5069223;28;20199;-82
2022/02/04 03:04:50;;;;;;;8.73;7.85;;;5.60;99.90;;;;;;5068822;28;20203;-82
2022/02/04 03:07:17;;;;;;;8.00;7.10;;;5.80;99.90;;;;;;5068905;28;20200;-82
2022/02/04 03:09:44;;;;;;;7.10;6.25;;;5.60;99.90;;;;;;5068120;28;20225;-82
2022/02/04 03:12:14;;;;;;;8.85;6.90;;;5.60;99.90;;;;;;5069304;28;20200;-82
2022/02/04 03:14:41;;;;;;;8.35;7.55;;;5.60;99.90;;;;;;5068602;28;20250;-82
2022/02/04 03:17:13;;;;;;;8.27;7.43;;;5.50;99.90;;;;;;5068833;28;20618;-82
2022/02/04 03:19:43;;;;;;;8.30;7.38;;;5.60;99.90;;;;;;5068115;28;20206;-82
2022/02/04 03:22:13;;;;;;;8.35;6.97;;;5.60;99.90;;;;;;5069295;28;20563;-82
2022/02/04 03:24:41;;;;;;;8.45;6.75;;;5.50;99.90;;;;;;5068558;28;20547;-82
2022/02/04 03:27:12;;;;;;;8.10;6.50;;;5.50;99.90;;;;;;5068801;28;20274;-82
2022/02/04 03:29:58;;;;;;;7.65;6.03;;;5.60;99.90;;;;;;5069051;28;20674;-82
2022/02/04 03:32:26;;;;;;;9.30;7.15;;;5.60;99.90;;;;;;5068080;28;20672;-82
2022/02/04 03:34:53;;;;;;;7.40;6.78;;;5.60;99.90;;;;;;5062490;28;20950;-82
2022/02/04 03:37:22;;;;;;;8.02;7.22;;;5.60;99.90;;;;;;5068088;28;20199;-81
2022/02/04 03:39:48;;;;;;;8.43;6.88;;;5.70;99.90;;;;;;5068712;28;20671;-82
2022/02/04 03:42:15;;;;;;;8.20;7.18;;;5.60;99.90;;;;;;5068866;28;20208;-82
2022/02/04 03:44:43;;;;;;;7.82;7.03;;;5.60;99.90;;;;;;5067245;28;20665;-82
2022/02/04 03:47:10;;;;;;;9.25;8.27;;;5.60;99.90;;;;;;5069040;28;20296;-82
2022/02/04 03:49:37;;;;;;;9.10;7.45;;;5.60;99.90;;;;;;5068279;28;20210;-81
2022/02/04 03:52:05;;;;;;;8.13;6.43;;;5.60;99.90;;;;;;5068323;28;20278;-82
2022/02/04 03:54:32;;;;;;;7.80;6.50;;;5.60;99.90;;;;;;5065938;28;20284;-81
2022/02/04 03:57:00;;;;;;;7.63;6.80;;;5.60;99.90;;;;;;5068147;28;20199;-82
2022/02/04 03:59:28;;;;;;;7.65;6.30;;;5.40;99.90;;;;;;5067755;28;20250;-82
2022/02/04 04:01:56;;;;;;;6.60;6.00;;;5.60;99.90;;;;;;5068340;28;20191;-81
2022/02/04 04:04:32;;;;;;;6.72;6.03;;;5.60;99.90;;;;;;5067340;28;20282;-82
2022/02/04 04:06:59;;;;;;;7.20;6.47;;;5.60;99.90;;;;;;5068441;28;20892;-82
2022/02/04 04:09:27;;;;;;;6.38;5.78;;;5.60;99.90;;;;;;5066719;28;20203;-81
2022/02/04 04:11:54;;;;;;;7.70;6.35;;;5.40;99.90;;;;;;5067781;28;20195;-82
2022/02/04 04:14:21;;;;;;;8.07;7.30;;;5.60;99.90;;;;;;5067863;28;20199;-82
2022/02/04 04:16:48;;;;;;;7.47;6.72;;;5.50;99.90;;;;;;5068226;28;20309;-81
2022/02/04 04:19:16;;;;;;;8.20;6.68;;;5.50;99.90;;;;;;5067866;28;20287;-82
2022/02/04 04:21:43;;;;;;;11.68;6.28;;;5.40;99.90;;;;;;5068119;28;20274;-81
2022/02/04 04:24:10;;;;;;;7.47;6.40;;;5.60;99.90;;;;;;5067045;28;20619;-82
2022/02/04 04:26:38;;;;;;;7.85;6.60;;;5.40;99.90;;;;;;5067806;28;20199;-82
2022/02/04 04:29:06;;;;;;;9.10;7.07;;;5.50;99.90;;;;;;5062550;28;20280;-81
2022/02/04 04:31:32;;;;;;;9.38;7.18;;;5.50;99.90;;;;;;5067782;28;20205;-81
2022/02/04 04:33:59;;;;;;;6.28;5.68;;;5.50;99.90;;;;;;5067046;28;20209;-81
2022/02/04 04:36:28;;;;;;;12.27;6.43;;;5.40;99.90;;;;;;5067941;28;20311;-81
2022/02/04 04:39:01;;;;;;;6.35;5.75;;;5.40;99.90;;;;;;5067050;28;20199;-81
2022/02/04 04:41:37;;;;;;;7.25;6.18;;;5.40;99.90;;;;;;5067886;28;20199;-81
2022/02/04 04:44:28;;;;;;;7.38;5.90;;;5.40;99.90;;;;;;5067238;28;20194;-81
2022/02/04 05:28:36;;;;;;;6.60;5.90;;;5.40;99.90;;;;;;5031557;28;20215;-81
2022/02/04 05:31:04;;;;;;;8.90;7.25;;;5.40;99.90;;;;;;5065181;28;20204;-81
2022/02/04 05:33:30;;;;;;;9.25;7.53;;;5.50;99.90;;;;;;5051933;28;20274;-82
2022/02/04 05:35:58;;;;;;;11.43;6.95;;;5.50;99.90;;;;;;5070439;28;20227;-82
2022/02/04 05:38:29;;;;;;;7.15;6.45;;;5.50;99.90;;;;;;5067046;28;20206;-82
2022/02/04 05:40:57;;;;;;;8.75;7.22;;;5.50;99.90;;;;;;5062952;28;20203;-82
2022/02/04 05:43:29;;;;;;;12.95;6.50;;;5.50;99.90;;;;;;5069986;28;20196;-83
2022/02/04 05:46:00;;;;;;;8.65;6.80;;;5.50;99.90;;;;;;5069701;28;20199;-82
2022/02/04 05:48:29;;;;;;;7.53;6.72;;;5.40;99.90;;;;;;5070928;28;20191;-83
2022/02/04 05:51:10;;;;;;;7.93;7.10;;;5.40;99.90;;;;;;5071075;28;20265;-82
2022/02/04 05:53:48;;;;;;;8.18;7.35;;;5.40;99.90;;;;;;5068023;28;20619;-82
2022/02/04 05:56:27;;;;;;;9.30;7.05;;;5.40;99.90;;;;;;5062079;28;20304;-82
2022/02/04 05:59:04;;;;;;;7.68;6.75;;;5.40;99.90;;;;;;5069982;28;20197;-82
2022/02/04 06:10:27;;;;;;;8.18;7.40;;;5.30;99.90;;;;;;5070030;28;20211;-82
2022/02/04 06:23:51;;;;;;;8.13;7.20;;;5.40;99.90;;;;;;5056562;28;20656;-82
2022/02/04 06:26:18;;;;;;;7.25;6.55;;;5.30;99.90;;;;;;5069970;28;20568;-82
2022/02/04 06:28:46;;;;;;;9.15;7.20;;;5.30;99.90;;;;;;5066034;28;20207;-82
2022/02/04 06:31:13;;;;;;;7.90;7.10;;;5.30;99.90;;;;;;5069408;28;20309;-82
2022/02/04 06:33:40;;;;;;;7.88;6.72;;;5.50;99.90;;;;;;5069230;28;20827;-82
2022/02/04 06:36:07;;;;;;;9.00;8.02;;;5.30;99.90;;;;;;5067822;28;20231;-82
2022/02/04 06:38:34;;;;;;;7.82;6.60;;;5.20;99.90;;;;;;5069129;28;20235;-82
2022/02/04 06:41:02;;;;;;;8.30;6.57;;;5.20;99.90;;;;;;5069580;28;20602;-82
2022/02/04 06:43:29;;;;;;;8.23;7.43;;;5.10;99.90;;;;;;5069588;28;20362;-82
2022/02/04 06:45:58;;;;;;;8.25;6.97;;;5.10;99.90;;;;;;5067859;28;20237;-82
2022/02/04 06:48:25;;;;;;;7.53;6.80;;;5.10;99.90;;;;;;5050141;28;20235;-82
2022/02/04 06:50:52;;;;;;;8.23;7.43;;;5.10;99.90;;;;;;5061844;28;20282;-82
2022/02/04 06:53:19;;;;;;;11.75;7.28;;;5.10;99.90;;;;;;5068929;28;20211;-82
2022/02/04 06:55:45;;;;;;;7.75;6.30;;;5.10;99.90;;;;;;5065859;28;20254;-82
2022/02/04 06:58:13;;;;;;;8.43;5.80;;;5.10;99.90;;;;;;5069882;28;20294;-82
2022/02/04 07:00:40;;;;;;;8.32;7.32;;;5.10;99.90;;;;;;5068417;28;20672;-82
2022/02/04 07:03:08;;;;;;;9.95;7.03;;;5.30;99.90;;;;;;5069556;28;20242;-82
2022/02/04 07:05:41;;;;;;;9.20;7.15;;;5.20;99.90;;;;;;5068180;28;20652;-82
2022/02/04 07:08:14;;;;;;;9.65;7.00;;;5.20;99.90;;;;;;5069151;28;20199;-82
2022/02/04 07:10:57;;;;;;;10.55;7.63;;;5.20;99.90;;;;;;5064013;28;20245;-82
2022/02/04 07:13:28;;;;;;;8.20;7.20;;;5.10;99.90;;;;;;5053383;28;20282;-82
2022/02/04 07:16:19;;;;;;;10.32;8.13;;;5.20;99.90;;;;;;5062965;28;20676;-82
2022/02/04 07:21:31;;;;;;;12.77;8.80;;;5.10;99.90;;;;;;5067265;28;20336;-82
2022/02/04 07:23:58;;;;;;;7.47;6.35;;;5.30;99.90;;;;;;5068617;28;20245;-83
2022/02/04 07:26:25;;;;;;;7.63;6.93;;;5.10;99.90;;;;;;5068940;28;20245;-82
2022/02/04 07:28:54;;;;;;;8.15;7.30;;;5.00;99.90;;;;;;5068906;28;20282;-82
2022/02/04 07:31:21;;;;;;;8.65;7.10;;;5.00;99.90;;;;;;5068313;28;20207;-82
2022/02/04 07:33:54;;;;;;;9.30;7.20;;;5.00;99.90;;;;;;5068301;28;20199;-82
2022/02/04 07:41:53;;;;;;;12.25;8.05;;;4.90;99.90;;;;;;5068927;28;20207;-82
2022/02/04 07:44:20;;;;;;;8.85;8.00;;;5.20;99.90;;;;;;5067093;28;20223;-82
2022/02/04 07:46:47;;;;;;;11.05;8.38;;;5.00;99.90;;;;;;5067753;28;20614;-82
2022/02/04 07:49:15;;;;;;;11.32;8.15;;;5.00;99.90;;;;;;5068593;28;20685;-82
2022/02/04 07:51:42;;;;;;;9.98;8.32;;;5.00;99.90;;;;;;5068346;28;20223;-82
2022/02/04 07:54:09;;;;;;;11.05;9.50;;;5.10;99.90;;;;;;5059934;28;20196;-82
2022/02/04 07:56:36;;;;;;;9.15;8.10;;;5.10;99.90;;;;;;5062943;28;20799;-83
2022/02/04 07:59:08;;;;;;;10.07;8.60;;;5.20;99.90;;;;;;5067210;28;20199;-83
2022/02/04 08:01:36;;;;;;;10.75;9.00;;;5.20;99.90;;;;;;5067450;28;20993;-82
2022/02/04 08:04:10;;;;;;;10.32;8.05;;;5.30;99.90;;;;;;5067252;28;20688;-83
2022/02/04 08:06:43;;;;;;;10.70;8.75;;;5.20;99.90;;;;;;5068209;28;20743;-82
2022/02/04 08:09:18;;;;;;;9.90;7.95;;;;;;;;;;5067730;28;20540;-82
2022/02/04 08:12:06;;;;;;;11.35;8.15;;;5.30;99.90;;;;;;5043279;28;20226;-83
2022/02/04 08:17:40;;;;;;;9.77;8.35;;;5.30;99.90;;;;;;5067414;28;20246;-82
2022/02/04 08:26:05;;;;;;;14.13;10.00;;;5.50;99.90;;;;;;5033550;28;20214;-83
2022/02/04 08:28:48;;;;;;;13.77;9.60;;;5.60;99.90;;;;;;5067569;28;20625;-83
2022/02/04 08:37:07;;;;;;;10.25;8.85;;;5.50;99.90;;;;;;5067792;28;20230;-83
2022/02/04 08:46:31;;;;;;;11.65;8.95;;;5.60;99.90;;;;;;5067646;28;20199;-83
2022/02/04 08:56:20;;;;;;;13.27;9.35;;;5.90;99.90;;;;;;5064179;28;20345;-83
2022/02/04 08:58:51;;;;;;;11.02;9.73;;;6.00;99.90;;;;;;5067405;28;20199;-83
2022/02/04 09:01:23;;;;;;;12.02;9.38;;;6.10;99.90;;;;;;5067711;28;20739;-83
2022/02/04 09:03:52;;;;;;;12.93;10.60;;;6.10;99.90;;;;;;5064765;28;20280;-82
2022/02/04 09:06:25;;;;;;;13.88;8.77;;;6.10;99.90;;;;;;5062221;28;20234;-83
2022/02/04 09:08:56;;;;;;;13.77;9.95;;;6.20;99.90;;;;;;5067295;28;20599;-83
2022/02/04 09:11:40;;;;;;;12.90;8.95;;;6.00;99.90;;;;;;5067643;28;20687;-82
2022/02/04 09:17:04;;;;;;;9.70;8.35;;;6.30;99.90;;;;;;5067655;28;20260;-82
2022/02/04 09:19:58;;;;;;;11.35;8.10;;;6.20;99.90;;;;;;5066844;28;20241;-82
2022/02/04 09:22:40;;;;;;;11.32;6.90;;;6.20;99.90;;;;;;5066824;28;21029;-82
2022/02/04 09:25:07;;;;;;;8.13;6.72;;;6.30;99.90;;;;;;5065865;28;20691;-82
2022/02/04 09:27:39;;;;;;;6.18;5.45;;;6.30;99.90;;;;;;5067701;28;20203;-82
2022/02/04 09:30:11;;;;;;;6.47;5.85;;;6.30;99.90;;;;;;5066491;28;20690;-82
2022/02/04 09:32:39;;;;;;;6.97;5.30;;;6.30;99.90;;;;;;5066899;28;20235;-82
2022/02/04 09:35:08;;;;;;;7.57;5.07;;;6.50;99.90;;;;;;5067920;28;20191;-82
2022/02/04 09:37:41;;;;;;;5.57;4.63;;;6.50;99.90;;;;;;5071035;28;20262;-82
2022/02/04 09:40:10;;;;;;;5.88;4.72;;;6.50;99.90;;;;;;5070744;28;20219;-82
2022/02/04 09:42:39;;;;;;;6.93;4.82;;;6.40;99.90;;;;;;5071307;28;20253;-82
2022/02/04 09:45:06;;;;;;;4.35;3.95;;;6.50;99.90;;;;;;5069864;28;20207;-82
2022/02/04 09:47:37;;;;;;;4.75;4.35;;;6.50;99.90;;;;;;5070065;28;20231;-82
2022/02/04 09:50:09;;;;;;;5.63;4.88;;;7.00;99.90;;;;;;5070370;28;20199;-82
2022/02/04 10:12:26;;;;;;;5.03;4.45;;;7.30;99.90;;;;;;5070355;28;20648;-82
2022/02/04 10:15:16;;;;;;;5.17;4.20;;;7.20;99.90;;;;;;5068423;28;20207;-82
2022/02/04 10:18:01;;;;;;;5.65;3.92;;;7.30;99.90;;;;;;5069353;28;20700;-82
2022/02/04 10:20:29;;;;;;;5.60;5.00;;;7.30;99.90;;;;;;5068313;28;20239;-82
2022/02/04 10:22:57;;;;;;;4.90;4.40;;;7.40;99.90;;;;;;5070298;28;20674;-82
2022/02/04 10:25:31;;;;;;;4.60;3.83;;;7.50;99.90;;;;;;5069843;28;20276;-82
2022/02/04 10:28:02;;;;;;;5.30;4.80;;;7.70;99.90;;;;;;5069915;28;20625;-82
2022/02/04 10:30:32;;;;;;;4.30;3.90;;;7.50;99.90;;;;;;5070124;28;20645;-82
2022/02/04 10:33:00;;;;;;;6.50;4.73;;;7.30;99.90;;;;;;5069336;28;21062;-82
2022/02/04 10:35:30;;;;;;;4.47;4.07;;;7.40;99.90;;;;;;5069808;28;20626;-82
2022/02/04 10:38:13;;;;;;;3.40;3.08;;;7.30;99.90;;;;;;5069803;28;20665;-82
2022/02/04 10:40:51;;;;;;;4.10;3.70;;;7.50;99.90;;;;;;5069016;28;20231;-82
2022/02/04 10:43:33;;;;;;;2.53;2.30;;;7.30;99.90;;;;;;5069024;28;20245;-82
2022/02/04 10:46:13;;;;;;;2.30;2.10;;;7.30;99.90;;;;;;5069814;28;20679;-82
2022/02/04 10:49:00;;;;;;;2.60;2.40;;;7.40;99.90;;;;;;5069896;28;20191;-82
2022/02/04 10:51:53;;;;;;;2.47;2.28;;;7.30;99.90;;;;;;5068999;28;20633;-82
2022/02/04 11:00:25;;;;;;;3.40;2.83;;;7.00;99.90;;;;;;5034082;28;20203;-82
2022/02/04 11:02:58;;;;;;;3.10;2.80;;;7.10;99.90;;;;;;5065914;28;21047;-82
2022/02/04 11:05:32;;;;;;;5.32;2.75;;;7.10;99.90;;;;;;5067552;28;20203;-82
2022/02/04 11:11:06;;;;;;;2.95;2.65;;;6.90;99.90;;;;;;5068913;28;20227;-82
2022/02/04 11:33:47;;;;;;;2.13;1.92;;;;;;;;;;5068836;28;20192;-82
2022/02/04 11:52:06;;;;;;;2.22;1.63;;;7.10;99.90;;;;;;5068209;28;20210;-84
2022/02/04 11:54:44;;;;;;;2.05;1.85;;;7.30;99.90;;;;;;5061760;28;20569;-82
2022/02/04 11:57:23;;;;;;;1.73;1.60;;;7.10;99.90;;;;;;5061637;28;20218;-82
2022/02/04 12:00:00;;;;;;;2.50;1.98;;;7.10;99.90;;;;;;5068583;28;20273;-82
2022/02/04 12:02:38;;;;;;;2.15;1.95;;;7.20;99.90;;;;;;5067843;28;20211;-82
2022/02/04 12:05:28;;;;;;;2.47;1.80;;;7.20;99.90;;;;;;5067705;28;20202;-82
2022/02/04 12:08:34;;;;;;;1.90;1.73;;;7.30;99.90;;;;;;5048629;28;20623;-82
2022/02/04 12:11:11;;;;;;;1.50;1.40;;;7.20;99.90;;;;;;5048450;28;20243;-82
2022/02/04 12:14:08;;;;;;;1.83;1.73;;;7.20;99.90;;;;;;5048567;28;20733;-83
2022/02/04 12:16:35;;;;;;;1.80;1.63;;;7.40;99.90;;;;;;5059413;28;21230;-82
2022/02/04 12:19:09;;;;;;;1.65;1.55;;;7.30;99.90;;;;;;5068155;28;20203;-82
2022/02/04 12:21:45;;;;;;;1.52;1.42;;;7.40;99.60;;;;;;5051563;28;20256;-82
2022/02/04 12:24:45;;;;;;;1.52;1.10;;;7.30;99.50;;;;;;5067385;28;20656;-82
2022/02/04 12:27:37;;;;;;;1.33;1.23;;;7.30;99.40;;;;;;5067980;28;20227;-82
2022/02/04 12:30:44;;;;;;;1.60;1.50;;;7.30;99.00;;;;;;5068199;28;20210;-82
2022/02/04 12:33:14;;;;;;;1.20;0.97;;;7.40;99.20;;;;;;5055350;28;20734;-83
2022/02/04 12:35:41;;;;;;;1.33;1.20;;;7.40;98.70;;;;;;5067507;28;20638;-83
2022/02/04 12:38:08;;;;;;;4.25;1.65;;;7.20;98.30;;;;;;5067624;28;20721;-83
2022/02/04 12:40:35;;;;;;;2.63;1.40;;;7.20;99.00;;;;;;5068212;28;20195;-83
2022/02/04 12:43:04;;;;;;;1.25;1.15;;;7.10;98.50;;;;;;5068219;28;20625;-82
2022/02/04 12:45:31;;;;;;;1.45;1.30;;;7.10;98.40;;;;;;5066370;28;20635;-83
2022/02/04 12:48:07;;;;;;;1.20;1.10;;;7.10;98.20;;;;;;5067522;28;20276;-83
2022/02/04 12:50:34;;;;;;;1.40;1.30;;;7.10;98.50;;;;;;5060323;28;20466;-83
2022/02/04 12:53:01;;;;;;;1.65;1.52;;;6.90;99.90;;;;;;5067911;28;20207;-83
2022/02/04 12:55:37;;;;;;;1.48;1.40;;;7.10;97.60;;;;;;5053429;28;20246;-83
2022/02/04 12:58:25;;;;;;;1.75;1.65;;;7.00;97.60;;;;;;5047949;28;20255;-83
2022/02/04 13:09:50;;;;;;;1.35;1.25;;;7.20;97.30;;;;;;5069485;28;20199;-83
2022/02/04 13:12:18;;;;;;;1.75;1.50;;;7.40;97.70;;;;;;5071813;28;20684;-82
2022/02/04 13:14:48;;;;;;;1.92;1.58;;;7.40;96.70;;;;;;5070726;28;20202;-83
2022/02/04 13:17:32;;;;;;;2.97;1.70;;;7.40;96.90;;;;;;5071509;28;20219;-83
2022/02/04 13:20:00;;;;;;;1.63;1.52;;;7.40;96.70;;;;;;5065159;28;20210;-83
2022/02/04 13:22:27;;;;;;;1.50;1.20;;;7.30;96.20;;;;;;5064467;28;20300;-83
2022/02/04 13:25:05;;;;;;;1.95;1.63;;;7.10;96.00;;;;;;5070389;28;20230;-82
2022/02/04 13:27:32;;;;;;;2.10;1.45;;;7.10;96.10;;;;;;5071056;28;20237;-83
2022/02/04 13:30:20;;;;;;;2.42;1.55;;;7.00;96.40;;;;;;5070819;28;20212;-83
2022/02/04 13:32:47;;;;;;;1.95;1.52;;;7.00;96.00;;;;;;5071676;28;20649;-83
2022/02/04 13:35:31;;;;;;;1.35;1.25;;;7.00;96.30;;;;;;5056224;28;20600;-83
2022/02/04 13:38:07;;;;;;;1.50;1.40;;;7.10;96.90;;;;;;5052361;28;20230;-83
2022/02/04 13:40:55;;;;;;;1.77;1.67;;;7.10;96.30;;;;;;5070897;28;20194;-83
2022/02/04 13:43:32;;;;;;;3.00;1.50;;;7.10;95.50;;;;;;5070832;28;20196;-83
2022/02/04 13:46:08;;;;;;;1.17;1.10;;;7.30;96.00;;;;;;5044792;28;20226;-83
2022/02/04 13:48:55;;;;;;;1.45;1.35;;;7.20;95.30;;;;;;5069443;28;20225;-83
2022/02/04 13:51:29;;;;;;;1.65;1.55;;;7.20;96.50;;;;;;5071301;28;20230;-83
2022/02/04 13:54:37;;;;;;;1.73;1.63;;;7.30;97.20;;;;;;5053198;28;20202;-83
2022/02/04 13:57:14;;;;;;;2.75;1.98;;;7.00;99.70;;;;;;5053510;28;20199;-83
2022/02/04 13:59:47;;;;;;;2.55;1.60;;;7.10;96.20;;;;;;5055624;28;20195;-83
2022/02/04 14:02:19;;;;;;;1.40;1.30;;;7.20;97.20;;;;;;5058236;28;20204;-83
2022/02/04 14:04:55;;;;;;;5.38;1.65;;;7.20;96.70;;;;;;5069152;28;20203;-83
2022/02/04 14:07:34;;;;;;;2.33;1.80;;;7.10;96.80;;;;;;5070075;28;20195;-83
2022/02/04 14:10:14;;;;;;;1.58;1.48;;;7.20;96.80;;;;;;5059181;28;20666;-83
2022/02/04 14:12:41;;;;;;;1.30;1.20;;;7.00;96.40;;;;;;5058647;28;20282;-83
2022/02/04 14:15:08;;;;;;;1.92;1.60;;;7.00;96.30;;;;;;5070099;28;20242;-83
2022/02/04 14:17:38;;;;;;;3.83;1.88;;;7.00;96.90;;;;;;5063299;28;20223;-83
2022/02/04 14:20:06;;;;;;;1.60;1.50;;;7.10;97.40;;;;;;5056900;28;20612;-83
2022/02/04 14:22:33;;;;;;;1.20;1.10;;;7.30;96.70;;;;;;5058976;28;20654;-83
2022/02/04 14:25:02;;;;;;;1.98;1.60;;;7.20;96.60;;;;;;5065888;28;20257;-83
2022/02/04 14:27:30;;;;;;;2.23;2.03;;;7.10;96.40;;;;;;5069894;28;20199;-83
2022/02/04 14:30:01;;;;;;;2.30;2.15;;;7.20;96.50;;;;;;5069499;28;20691;-83
2022/02/04 14:32:37;;;;;;;2.33;1.80;;;7.10;96.50;;;;;;5066085;28;20192;-83
2022/02/04 14:35:10;;;;;;;1.30;1.20;;;7.00;96.40;;;;;;5068686;28;20629;-83
2022/02/04 14:49:14;;;;;;;1.48;1.30;;;6.90;96.10;;;;;;5066686;28;20929;-83
2022/02/04 14:52:03;;;;;;;1.42;1.33;;;6.90;96.90;;;;;;5066107;28;20749;-83
2022/02/04 14:54:47;;;;;;;1.42;1.33;;;6.90;96.90;;;;;;5066307;28;20206;-83
2022/02/04 15:02:46;;;;;;;1.50;1.40;;;6.70;96.70;;;;;;5066149;28;20203;-83
2022/02/04 15:05:17;;;;;;;2.40;1.40;;;6.70;97.50;;;;;;5065169;28;20210;-83
2022/02/04 15:07:49;;;;;;;1.33;1.10;;;6.80;98.00;;;;;;5066520;28;20195;-83
2022/02/04 15:10:27;;;;;;;2.67;1.42;;;6.90;97.30;;;;;;5065732;28;20688;-83
2022/02/04 15:12:54;;;;;;;3.00;1.95;;;6.80;97.00;;;;;;5065928;28;20195;-83
2022/02/04 15:15:21;;;;;;;1.10;1.02;;;6.70;97.00;;;;;;5067634;28;20203;-83
2022/02/04 15:17:48;;;;;;;0.80;0.80;;;6.70;97.00;;;;;;5067383;28;20334;-83
2022/02/04 15:20:15;;;;;;;1.58;1.33;;;6.70;97.00;;;;;;5065796;28;20286;-83
2022/02/04 15:22:42;;;;;;;2.13;1.92;;;6.70;97.40;;;;;;5066765;28;20195;-83
2022/02/04 15:25:18;;;;;;;1.30;1.20;;;6.70;97.10;;;;;;5065985;28;20252;-83
2022/02/04 15:27:55;;;;;;;1.20;1.10;;;6.80;97.50;;;;;;5066246;28;20191;-83
2022/02/04 15:30:26;;;;;;;4.68;1.75;;;6.80;97.40;;;;;;5065966;28;20298;-83
2022/02/04 15:32:55;;;;;;;1.20;1.20;;;6.80;97.00;;;;;;5064813;28;20195;-83
2022/02/04 15:35:22;;;;;;;1.15;1.05;;;6.80;97.30;;;;;;5066859;28;20223;-84
2022/02/04 15:37:49;;;;;;;1.45;1.35;;;6.90;97.20;;;;;;5068450;28;20211;-83
2022/02/04 15:40:18;;;;;;;3.75;1.80;;;6.80;96.80;;;;;;5068762;28;20222;-83
2022/02/04 15:42:53;;;;;;;1.10;1.00;;;6.80;96.80;;;;;;5066941;28;20191;-83
2022/02/04 15:45:57;;;;;;;1.35;1.25;;;6.90;97.10;;;;;;5066806;28;20198;-83
2022/02/04 15:48:24;;;;;;;1.30;1.23;;;6.90;97.20;;;;;;5066155;28;20199;-83
2022/02/04 15:51:04;;;;;;;4.90;4.40;;;6.90;97.10;;;;;;5068184;28;20320;-84
2022/02/04 15:53:35;;;;;;;3.30;3.00;;;6.70;97.20;;;;;;5066476;28;20603;-83
2022/02/04 15:56:19;;;;;;;3.00;2.72;;;6.70;97.00;;;;;;5062053;28;20220;-84
2022/02/04 15:59:05;;;;;;;1.75;1.65;;;6.70;99.90;;;;;;5068439;28;20226;-84
2022/02/04 16:01:51;;;;;;;5.33;4.93;;;;;;;;;;5066956;28;20753;-83
2022/02/04 16:04:22;;;;;;;3.25;2.85;;;6.80;97.10;;;;;;5067324;28;21005;-84
2022/02/04 16:06:50;;;;;;;1.42;1.23;;;6.80;97.60;;;;;;5069143;28;20203;-83
2022/02/04 16:09:19;;;;;;;1.30;1.20;;;6.80;97.70;;;;;;5068003;28;20768;-83
2022/02/04 16:12:03;;;;;;;1.92;1.75;;;6.70;97.50;;;;;;5068142;28;20557;-84
2022/02/04 16:14:34;;;;;;;1.58;0.90;;;6.70;97.80;;;;;;5067301;28;20724;-83
2022/02/04 16:17:10;;;;;;;2.30;2.00;;;6.70;97.50;;;;;;5068333;28;20278;-83
2022/02/04 16:19:42;;;;;;;1.30;1.20;;;6.60;97.20;;;;;;5067050;28;20226;-83
2022/02/04 16:30:26;;;;;;;0.80;0.80;;;6.70;97.50;;;;;;5057538;28;20597;-84
2022/02/04 16:32:53;;;;;;;2.45;1.00;;;6.70;97.60;;;;;;5068283;28;20320;-84
2022/02/04 16:35:21;;;;;;;1.35;1.20;;;6.80;97.60;;;;;;5067076;28;20257;-84
2022/02/04 16:38:01;;;;;;;0.90;0.90;;;6.80;97.50;;;;;;5054273;28;20766;-84
2022/02/04 16:40:28;;;;;;;1.80;1.40;;;6.70;97.70;;;;;;5065857;28;20438;-83
2022/02/04 16:42:56;;;;;;;1.63;1.15;;;6.70;97.30;;;;;;5067866;28;20241;-83
2022/02/04 16:45:23;;;;;;;0.82;0.80;;;6.80;97.10;;;;;;5067497;28;20199;-83
2022/02/04 16:47:52;;;;;;;1.27;1.02;;;6.70;96.70;;;;;;5067023;28;20230;-83
2022/02/04 16:50:21;;;;;;;1.00;1.00;;;6.50;96.60;;;;;;5067525;28;20207;-83
2022/02/04 16:52:48;;;;;;;1.20;1.10;;;6.50;97.00;;;;;;5068037;28;20244;-83
2022/02/04 16:55:15;;;;;;;1.17;1.02;;;6.50;97.30;;;;;;5056995;28;20207;-83
2022/02/04 16:57:42;;;;;;;1.10;1.10;;;6.50;97.30;;;;;;5067551;28;20278;-83
2022/02/04 17:00:21;;;;;;;3.85;1.15;;;6.50;97.00;;;;;;5067963;28;20219;-83
2022/02/04 17:02:48;;;;;;;2.05;0.88;;;6.50;96.70;;;;;;5067173;28;20199;-83
2022/02/04 17:05:16;;;;;;;3.08;2.10;;;6.50;96.90;;;;;;5065464;28;20722;-83
2022/02/04 17:07:51;;;;;;;0.85;0.85;;;6.50;96.90;;;;;;5068183;28;20207;-83
2022/02/04 17:10:19;;;;;;;2.42;1.30;;;6.50;96.60;;;;;;5067334;28;20199;-83
2022/02/04 17:12:47;;;;;;;1.98;1.40;;;6.50;96.70;;;;;;5067283;28;20567;-83
2022/02/04 17:15:17;;;;;;;1.65;0.80;;;6.50;96.60;;;;;;5066193;28;20229;-83
2022/02/04 17:17:44;;;;;;;2.03;1.42;;;6.40;96.60;;;;;;5067707;28;20530;-83
2022/02/04 17:20:14;;;;;;;1.92;1.83;;;6.40;97.10;;;;;;5066835;28;20732;-83
2022/02/04 17:22:42;;;;;;;1.63;1.20;;;6.70;99.90;;;;;;5067394;28;20551;-83
2022/02/04 17:25:11;;;;;;;1.98;1.60;;;6.40;96.60;;;;;;5066251;28;20208;-83
2022/02/04 17:27:40;;;;;;;1.33;1.20;;;6.40;96.50;;;;;;5066157;28;20269;-83
2022/02/04 17:30:10;;;;;;;1.60;1.50;;;6.40;96.90;;;;;;5066992;28;20274;-83
2022/02/04 17:32:40;;;;;;;1.58;1.15;;;6.50;96.10;;;;;;5065855;28;20203;-83
2022/02/04 17:35:09;;;;;;;3.53;3.22;;;6.90;96.60;;;;;;5061478;28;20286;-83
2022/02/04 17:37:36;;;;;;;2.53;1.80;;;6.40;96.70;;;;;;5067971;28;20246;-83
2022/02/04 17:40:04;;;;;;;2.40;2.20;;;6.40;96.50;;;;;;5066320;28;20216;-83
2022/02/04 17:42:31;;;;;;;1.60;1.50;;;;;;;;;;5066808;28;20196;-83
2022/02/04 17:44:58;;;;;;;1.70;1.60;;;6.50;95.90;;;;;;5067020;28;20195;-83
2022/02/04 17:47:26;;;;;;;2.58;1.23;;;6.50;96.40;;;;;;5066991;28;20219;-83
2022/02/04 17:50:00;;;;;;;1.00;1.00;;;6.40;96.30;;;;;;5066748;28;20204;-83
2022/02/04 17:52:37;;;;;;;1.38;1.20;;;6.50;96.00;;;;;;5066846;28;20204;-83
2022/02/04 17:55:08;;;;;;;1.25;1.15;;;6.50;96.40;;;;;;5066536;28;20540;-83